Time;durP1;ratioP1;P1;durP2;ratioP2;P2;SDS_P1;SDS_P2;PMS_P1;PMS_P2;Temp;Humidity;BMP_temperature;BMP_pressure;BME280_temperature;BME280_humidity;BME280_pressure;Samples;Min_cycle;Max_cycle;Signal;HPM_P1;HPM_P2
2022/04/05 00:01:59;;;;;;;6.03;4.90;;;;;;;;;;4972984;28;21207;-87
2022/04/05 00:05:03;;;;;;;6.30;5.00;;;;;;;;;;4994883;28;20558;-85
2022/04/05 00:08:07;;;;;;;6.63;4.93;;;;;;;;;;4983541;28;20541;-86
2022/04/05 00:11:11;;;;;;;6.63;4.60;;;;;;;;;;4983682;28;20561;-86
2022/04/05 00:14:15;;;;;;;6.13;4.77;;;;;;;;;;4994913;28;20629;-86
2022/04/05 00:17:19;;;;;;;5.53;4.60;;;;;;;;;;4972439;28;20546;-86
2022/04/05 00:20:23;;;;;;;6.00;4.73;;;;;;;;;;4983719;28;20554;-86
2022/04/05 00:23:27;;;;;;;7.23;5.20;;;;;;;;;;5005928;28;21239;-86
2022/04/05 00:26:32;;;;;;;9.53;4.97;;;;;;;;;;4994568;28;20565;-86
2022/04/05 00:29:36;;;;;;;6.00;5.17;;;;;;;;;;4972362;28;20542;-86
2022/04/05 00:32:42;;;;;;;6.50;4.73;;;;;;;;;;4983558;28;20616;-86
2022/04/05 00:35:46;;;;;;;7.20;4.80;;;;;;;;;;4983085;28;20597;-86
2022/04/05 00:38:50;;;;;;;7.87;5.00;;;;;;;;;;4983155;28;20605;-86
2022/04/05 00:41:54;;;;;;;7.67;5.77;;;;;;;;;;4983106;28;20645;-86
2022/04/05 00:44:58;;;;;;;8.53;5.10;;;;;;;;;;4983050;28;20609;-86
2022/04/05 00:48:04;;;;;;;8.17;5.40;;;;;;;;;;4972154;28;20545;-86
2022/04/05 00:51:08;;;;;;;6.63;5.17;;;;;;;;;;4994604;28;20541;-86
2022/04/05 00:54:13;;;;;;;7.67;5.17;;;;;;;;;;5011503;23;21254;-86
2022/04/05 00:57:20;;;;;;;6.67;4.63;;;;;;;;;;4993338;28;20546;-86
2022/04/05 01:00:24;;;;;;;6.40;4.57;;;;;;;;;;4993714;28;21071;-86
2022/04/05 01:03:28;;;;;;;6.73;5.20;;;;;;;;;;4993415;28;20661;-86
2022/04/05 01:06:39;;;;;;;6.73;4.87;;;;;;;;;;4993578;28;20601;-86
2022/04/05 01:09:44;;;;;;;6.00;4.87;;;;;;;;;;4982424;28;20538;-86
2022/04/05 01:12:49;;;;;;;6.20;4.73;;;;;;;;;;4993230;28;20597;-86
2022/04/05 01:15:54;;;;;;;6.67;4.60;;;;;;;;;;4993611;28;20537;-86
2022/04/05 01:18:58;;;;;;;6.33;4.67;;;;;;;;;;4993993;28;20542;-86
2022/04/05 01:22:02;;;;;;;5.83;4.27;;;;;;;;;;4997131;28;20657;-86
2022/04/05 01:25:13;;;;;;;5.57;4.13;;;;;;;;;;4986554;28;20605;-86
2022/04/05 01:28:18;;;;;;;5.67;4.40;;;;;;;;;;4997674;28;20546;-86
2022/04/05 01:31:22;;;;;;;6.47;4.57;;;;;;;;;;4997744;28;20541;-86
2022/04/05 01:34:28;;;;;;;5.00;4.13;;;;;;;;;;5008170;28;20621;-86
2022/04/05 01:37:33;;;;;;;5.37;4.33;;;;;;;;;;4998070;28;20549;-86
2022/04/05 01:40:38;;;;;;;4.60;3.90;;;;;;;;;;4997378;28;20558;-86
2022/04/05 01:43:42;;;;;;;4.97;3.93;;;;;;;;;;4997149;28;20656;-86
2022/04/05 01:46:46;;;;;;;5.60;4.13;;;;;;;;;;4986075;28;20542;-86
2022/04/05 01:49:51;;;;;;;5.80;3.90;;;;;;;;;;4985858;28;20916;-86
2022/04/05 01:52:54;;;;;;;5.90;3.50;;;;;;;;;;4997129;28;20964;-86
2022/04/05 01:55:59;;;;;;;4.53;3.47;;;;;;;;;;4997095;28;21088;-86
2022/04/05 01:59:03;;;;;;;5.10;3.80;;;;;;;;;;4986335;28;20546;-86
2022/04/05 02:02:09;;;;;;;4.97;3.37;;;;;;;;;;4996932;28;20597;-86
2022/04/05 02:05:13;;;;;;;4.70;3.27;;;;;;;;;;4997133;28;20561;-86
2022/04/05 02:08:17;;;;;;;4.73;3.83;;;;;;;;;;4985672;28;20538;-86
2022/04/05 02:11:22;;;;;;;5.80;3.60;;;;;;;;;;4996421;28;20613;-86
2022/04/05 02:14:30;;;;;;;5.60;3.53;;;;;;;;;;4996621;28;20945;-86
2022/04/05 02:17:36;;;;;;;5.80;3.67;;;;;;;;;;4974818;28;20604;-86
2022/04/05 02:20:44;;;;;;;5.57;3.60;;;;;;;;;;5007654;28;20546;-86
2022/04/05 02:23:51;;;;;;;4.97;4.00;;;;;;;;;;4996175;28;20665;-86
2022/04/05 02:27:02;;;;;;;7.40;3.70;;;;;;;;;;4995563;28;20605;-86
2022/04/05 02:30:07;;;;;;;6.43;3.67;;;;;;;;;;4996667;28;20592;-86
2022/04/05 02:33:11;;;;;;;6.67;4.50;;;;;;;;;;4997052;28;20613;-86
2022/04/05 02:36:16;;;;;;;5.87;3.97;;;;;;;;;;4997556;28;20543;-86
2022/04/05 02:39:20;;;;;;;5.23;4.23;;;;;;;;;;4998214;28;20545;-86
2022/04/05 02:42:29;;;;;;;5.77;4.20;;;;;;;;;;4997516;28;20637;-86
2022/04/05 02:45:34;;;;;;;7.33;4.53;;;;;;;;;;4997324;28;20541;-86
2022/04/05 02:48:43;;;;;;;5.37;4.00;;;;;;;;;;4984900;28;20951;-86
2022/04/05 02:51:52;;;;;;;6.57;4.33;;;;;;;;;;4995110;28;20964;-86
2022/04/05 02:55:03;;;;;;;6.60;4.77;;;;;;;;;;4995608;28;20527;-86
2022/04/05 02:58:10;;;;;;;6.17;3.97;;;;;;;;;;4995496;28;20612;-86
2022/04/05 03:01:16;;;;;;;6.33;4.90;;;;;;;;;;4984884;28;20538;-86
2022/04/05 03:04:21;;;;;;;6.07;4.57;;;;;;;;;;4995836;28;20660;-86
2022/04/05 03:07:27;;;;;;;5.23;4.10;;;;;;;;;;4995782;28;20601;-86
2022/04/05 03:10:32;;;;;;;6.03;4.23;;;;;;;;;;4995901;28;20554;-86
2022/04/05 03:13:39;;;;;;;6.03;4.33;;;;;;;;;;4995735;28;20621;-86
2022/04/05 03:16:44;;;;;;;4.80;3.90;;;;;;;;;;4996188;28;21075;-86
2022/04/05 03:19:53;;;;;;;6.80;4.37;;;;;;;;;;4994806;28;20561;-86
2022/04/05 03:23:00;;;;;;;6.33;4.37;;;;;;;;;;4984211;28;20985;-86
2022/04/05 03:26:04;;;;;;;7.50;4.77;;;;;;;;;;4984454;28;21095;-86
2022/04/05 03:29:09;;;;;;;7.20;4.83;;;;;;;;;;4995877;28;20538;-86
2022/04/05 03:32:14;;;;;;;6.00;4.13;;;;;;;;;;4995411;28;20546;-86
2022/04/05 03:35:19;;;;;;;6.47;4.80;;;;;;;;;;4995689;28;20557;-86
2022/04/05 03:38:24;;;;;;;6.70;4.80;;;;;;;;;;4995356;28;21158;-86
2022/04/05 03:41:29;;;;;;;6.93;5.20;;;;;;;;;;4994789;28;20604;-86
2022/04/05 03:44:34;;;;;;;7.13;4.20;;;;;;;;;;4984008;28;20665;-86
2022/04/05 03:47:38;;;;;;;6.33;4.60;;;;;;;;;;5006693;28;20542;-86
2022/04/05 03:50:43;;;;;;;7.53;4.90;;;;;;;;;;4995196;28;20558;-86
2022/04/05 03:53:48;;;;;;;7.30;4.97;;;;;;;;;;4994429;28;20645;-86
2022/04/05 03:56:56;;;;;;;8.80;4.57;;;;;;;;;;5005520;28;20553;-86
2022/04/05 04:00:03;;;;;;;7.23;4.93;;;;;;;;;;4995162;28;20542;-86
2022/04/05 04:03:08;;;;;;;7.80;5.40;;;;;;;;;;4994665;28;20657;-86
2022/04/05 04:06:13;;;;;;;11.13;4.97;;;;;;;;;;4994837;28;20609;-86
2022/04/05 04:09:17;;;;;;;8.33;4.93;;;;;;;;;;4983296;28;20959;-86
2022/04/05 04:12:21;;;;;;;6.57;5.10;;;;;;;;;;4972274;28;20557;-86
2022/04/05 04:15:25;;;;;;;8.03;5.33;;;;;;;;;;4994462;28;20542;-88
2022/04/05 04:18:30;;;;;;;7.37;4.87;;;;;;;;;;4983049;28;20538;-88
2022/04/05 04:21:36;;;;;;;6.43;5.30;;;;;;;;;;4994178;28;20538;-88
2022/04/05 04:24:40;;;;;;;6.27;4.93;;;;;;;;;;5005995;28;20653;-88
2022/04/05 04:27:45;;;;;;;8.73;5.00;;;;;;;;;;4994281;28;20546;-89
2022/04/05 04:30:49;;;;;;;7.20;5.30;;;;;;;;;;4994482;28;20545;-88
2022/04/05 04:33:53;;;;;;;8.60;5.13;;;;;;;;;;4993888;28;21202;-88
2022/04/05 04:36:57;;;;;;;6.10;5.00;;;;;;;;;;4973230;28;20553;-84
2022/04/05 04:40:02;;;;;;;6.77;4.93;;;;;;;;;;4995042;28;20546;-84
2022/04/05 04:43:07;;;;;;;6.10;4.93;;;;;;;;;;4994026;28;20648;-84
2022/04/05 04:46:10;;;;;;;5.20;4.67;;;;;;;;;;4994181;28;21088;-85
2022/04/05 04:49:15;;;;;;;7.43;5.03;;;;;;;;;;4994030;28;20534;-85
2022/04/05 04:52:19;;;;;;;5.80;4.70;;;;;;;;;;4993564;28;20948;-85
2022/04/05 04:55:24;;;;;;;6.80;5.10;;;;;;;;;;4993028;28;20589;-84
2022/04/05 04:58:28;;;;;;;6.40;4.60;;;;;;;;;;5005125;28;20593;-84
2022/04/05 05:01:32;;;;;;;7.30;5.30;;;;;;;;;;4982437;28;20546;-85
2022/04/05 05:04:36;;;;;;;7.33;4.87;;;;;;;;;;4993157;28;21243;-85
2022/04/05 05:07:41;;;;;;;10.00;5.10;;;;;;;;;;4993521;28;20944;-85
2022/04/05 05:10:45;;;;;;;6.33;4.70;;;;;;;;;;4982272;28;20605;-85
2022/04/05 05:13:49;;;;;;;6.37;4.40;;;;;;;;;;4993047;28;20632;-85
2022/04/05 05:16:54;;;;;;;6.60;4.57;;;;;;;;;;4982620;28;20546;-85
2022/04/05 05:19:58;;;;;;;7.13;5.30;;;;;;;;;;4982260;28;20550;-87
2022/04/05 05:23:02;;;;;;;6.43;4.90;;;;;;;;;;4993161;28;20616;-85
2022/04/05 05:26:06;;;;;;;8.20;5.33;;;;;;;;;;4993218;28;20553;-85
2022/04/05 05:29:12;;;;;;;6.73;5.00;;;;;;;;;;4993370;28;20882;-85
2022/04/05 05:32:16;;;;;;;6.67;5.53;;;;;;;;;;4993440;28;20542;-85
2022/04/05 05:35:21;;;;;;;6.93;5.30;;;;;;;;;;4993195;28;20553;-85
2022/04/05 05:38:26;;;;;;;7.20;4.80;;;;;;;;;;5005016;28;20542;-83
2022/04/05 05:41:30;;;;;;;7.80;5.17;;;;;;;;;;4993337;28;20613;-83
2022/04/05 05:44:35;;;;;;;9.03;5.27;;;;;;;;;;4993541;28;21005;-85
2022/04/05 05:47:39;;;;;;;8.23;5.20;;;;;;;;;;4993858;28;21101;-87
2022/04/05 05:50:43;;;;;;;6.50;5.10;;;;;;;;;;4992875;28;20550;-87
2022/04/05 05:53:47;;;;;;;7.10;5.30;;;;;;;;;;4992818;28;21024;-83
2022/04/05 05:56:51;;;;;;;8.40;5.67;;;;;;;;;;4993063;28;20894;-85
2022/04/05 05:59:55;;;;;;;10.27;7.40;;;;;;;;;;4993059;28;20550;-87
2022/04/05 06:03:03;;;;;;;7.73;6.27;;;;;;;;;;4992986;28;21186;-86
2022/04/05 06:06:07;;;;;;;9.60;5.77;;;;;;;;;;4995087;28;20554;-87
2022/04/05 06:09:11;;;;;;;7.30;6.00;;;;;;;;;;4997307;28;20538;-85
2022/04/05 06:12:16;;;;;;;9.20;5.80;;;;;;;;;;4996717;28;20557;-85
2022/04/05 06:15:20;;;;;;;8.83;5.90;;;;;;;;;;4985853;28;20537;-86
2022/04/05 06:18:24;;;;;;;8.07;6.27;;;;;;;;;;4997645;28;20541;-83
2022/04/05 06:21:28;;;;;;;9.07;7.00;;;;;;;;;;5007608;28;20554;-86
2022/04/05 06:24:32;;;;;;;7.10;5.60;;;;;;;;;;4996485;28;20656;-83
2022/04/05 06:27:37;;;;;;;9.17;5.70;;;;;;;;;;4996852;28;20605;-88
2022/04/05 06:30:41;;;;;;;8.70;5.87;;;;;;;;;;4996568;28;20601;-87
2022/04/05 06:33:45;;;;;;;11.27;9.20;;;;;;;;;;4996314;28;20957;-86
2022/04/05 06:36:50;;;;;;;6.77;5.97;;;;;;;;;;4996327;28;20541;-85
2022/04/05 06:39:54;;;;;;;5.83;4.70;;;;;;;;;;4985205;28;20550;-86
2022/04/05 06:42:58;;;;;;;5.53;4.67;;;;;;;;;;4996340;28;20956;-86
2022/04/05 06:46:03;;;;;;;5.47;4.43;;;;;;;;;;4996172;28;20530;-86
2022/04/05 06:49:07;;;;;;;6.47;4.33;;;;;;;;;;4996080;28;20546;-85
2022/04/05 06:52:11;;;;;;;6.33;4.33;;;;;;;;;;4995660;28;20601;-84
2022/04/05 06:55:15;;;;;;;5.80;4.17;;;;;;;;;;5052978;23;20676;-85
2022/04/05 06:58:20;;;;;;;7.10;5.07;;;;;;;;;;4984971;28;20530;-86
2022/04/05 07:01:24;;;;;;;4.97;4.40;;;;;;;;;;4974429;28;20545;-88
2022/04/05 07:04:29;;;;;;;3.93;3.47;;;;;;;;;;4965495;28;21032;-88
2022/04/05 07:07:33;;;;;;;4.07;3.67;;;;;;;;;;4965318;28;21072;-88
2022/04/05 07:10:37;;;;;;;7.20;4.63;;;;;;;;;;4976466;28;20551;-88
2022/04/05 07:13:41;;;;;;;4.83;3.77;;;;;;;;;;4964868;28;20218;-85
2022/04/05 07:16:45;;;;;;;4.80;3.20;;;;;;;;;;4964783;28;20542;-86
2022/04/05 07:19:49;;;;;;;5.20;3.40;;;;;;;;;;4964913;28;20566;-85
2022/04/05 07:22:53;;;;;;;3.87;3.20;;;;;;;;;;4965305;28;20874;-87
2022/04/05 07:25:57;;;;;;;4.83;3.37;;;;;;;;;;4964836;28;20179;-86
2022/04/05 07:29:02;;;;;;;6.50;3.60;;;;;;;;;;4965098;28;20538;-86
2022/04/05 07:32:07;;;;;;;5.33;3.70;;;;;;;;;;4965120;28;20551;-86
2022/04/05 07:35:13;;;;;;;4.67;3.10;;;;;;;;;;4964586;28;20218;-86
2022/04/05 07:38:18;;;;;;;4.77;3.90;;;;;;;;;;4975740;28;20539;-86
2022/04/05 07:41:22;;;;;;;5.63;3.50;;;;;;;;;;4964363;28;20559;-86
2022/04/05 07:44:26;;;;;;;6.37;3.90;;;;;;;;;;4975481;28;20653;-85
2022/04/05 07:47:30;;;;;;;6.97;3.80;;;;;;;;;;4964929;28;21093;-86
2022/04/05 07:50:35;;;;;;;4.37;3.53;;;;;;;;;;4976313;28;20555;-85
2022/04/05 07:53:39;;;;;;;5.87;4.07;;;;;;;;;;4964386;28;20645;-86
2022/04/05 07:56:43;;;;;;;4.97;3.93;;;;;;;;;;4964459;28;20183;-86
2022/04/05 07:59:47;;;;;;;9.07;7.30;;;;;;;;;;4964572;28;20542;-86
2022/04/05 08:02:51;;;;;;;7.93;7.23;;;;;;;;;;4975343;28;20187;-86
2022/04/05 08:05:56;;;;;;;4.73;3.57;;;;;;;;;;4964145;28;20678;-86
2022/04/05 08:09:00;;;;;;;4.97;4.10;;;;;;;;;;4964747;28;20909;-86
2022/04/05 08:12:05;;;;;;;6.63;4.07;;;;;;;;;;4963763;28;20639;-87
2022/04/05 08:15:11;;;;;;;5.83;4.27;;;;;;;;;;4964423;28;20222;-87
2022/04/05 08:18:15;;;;;;;6.70;4.50;;;;;;;;;;4964246;28;20183;-86
2022/04/05 08:21:20;;;;;;;6.77;4.80;;;;;;;;;;4975293;28;20187;-86
2022/04/05 08:24:24;;;;;;;8.00;4.30;;;;;;;;;;4963674;28;20230;-86
2022/04/05 08:27:28;;;;;;;6.20;4.40;;;;;;;;;;4963653;28;20186;-86
2022/04/05 08:30:33;;;;;;;12.30;7.67;;;;;;;;;;4964400;28;20618;-85
2022/04/05 08:33:36;;;;;;;8.37;6.63;;;;;;;;;;4975022;28;20218;-85
2022/04/05 08:36:40;;;;;;;5.87;5.17;;;;;;;;;;4964069;28;20179;-86
2022/04/05 08:39:45;;;;;;;6.10;4.60;;;;;;;;;;4975187;28;20178;-86
2022/04/05 08:42:52;;;;;;;6.07;4.67;;;;;;;;;;4974716;28;20186;-85
2022/04/05 08:46:02;;;;;;;6.37;4.40;;;;;;;;;;4963665;28;20673;-86
2022/04/05 08:49:07;;;;;;;8.57;5.30;;;;;;;;;;4963967;28;20179;-86
2022/04/05 08:52:11;;;;;;;5.93;4.40;;;;;;;;;;4974979;28;20541;-86
2022/04/05 08:55:16;;;;;;;6.90;5.37;;;;;;;;;;4975374;28;20592;-86
2022/04/05 08:58:21;;;;;;;5.87;4.43;;;;;;;;;;4974739;28;20183;-86
2022/04/05 09:01:29;;;;;;;17.17;10.63;;;;;;;;;;4963501;28;20183;-85
2022/04/05 09:04:34;;;;;;;6.43;5.10;;;;;;;;;;4974144;28;20226;-87
2022/04/05 09:07:40;;;;;;;12.60;9.50;;;;;;;;;;4974559;28;20183;-86
2022/04/05 09:10:50;;;;;;;12.20;9.63;;;;;;;;;;4963211;28;20183;-87
2022/04/05 09:14:00;;;;;;;7.00;5.50;;;;;;;;;;4985569;28;20226;-87
2022/04/05 09:17:08;;;;;;;6.20;5.07;;;;;;;;;;4963323;28;20186;-87
2022/04/05 09:20:13;;;;;;;9.13;5.00;;;;;;;;;;4974071;28;20187;-86
2022/04/05 09:23:25;;;;;;;5.27;4.47;;;;;;;;;;4963092;28;20646;-86
2022/04/05 09:26:42;;;;;;;7.27;5.40;;;;;;;;;;4974538;28;20531;-87
2022/04/05 09:29:50;;;;;;;8.50;5.20;;;;;;;;;;4975260;28;20187;-86
2022/04/05 09:32:55;;;;;;;8.00;5.50;;;;;;;;;;4964046;28;20178;-87
2022/04/05 09:36:07;;;;;;;10.50;8.23;;;;;;;;;;4963205;28;20171;-87
2022/04/05 09:39:14;;;;;;;7.97;5.33;;;;;;;;;;4963400;28;20204;-86
2022/04/05 09:42:18;;;;;;;7.87;5.43;;;;;;;;;;4977806;28;20182;-87
2022/04/05 09:45:41;;;;;;;8.47;5.47;;;;;;;;;;4967113;28;20230;-87
2022/04/05 09:48:46;;;;;;;7.07;5.77;;;;;;;;;;4978048;28;20191;-87
2022/04/05 09:51:50;;;;;;;8.20;6.30;;;;;;;;;;4977664;28;20182;-87
2022/04/05 09:54:56;;;;;;;10.50;7.50;;;;;;;;;;4966253;28;20222;-87
2022/04/05 09:58:11;;;;;;;14.37;10.57;;;;;;;;;;4966666;28;20527;-87
2022/04/05 10:01:17;;;;;;;6.57;5.87;;;;;;;;;;4966433;28;20187;-87
2022/04/05 10:04:21;;;;;;;13.40;8.70;;;;;;;;;;4977112;28;20214;-87
2022/04/05 10:07:30;;;;;;;8.87;6.93;;;;;;;;;;4966280;28;20174;-87
2022/04/05 10:10:35;;;;;;;41.63;22.87;;;;;;;;;;4966194;28;20182;-88
2022/04/05 10:13:39;;;;;;;15.07;11.03;;;;;;;;;;4966126;28;20609;-87
2022/04/05 10:16:45;;;;;;;12.90;9.67;;;;;;;;;;4966297;28;20529;-88
2022/04/05 10:19:49;;;;;;;8.07;6.23;;;;;;;;;;4966176;28;20183;-88
2022/04/05 10:22:56;;;;;;;7.40;5.50;;;;;;;;;;4966163;28;20179;-88
2022/04/05 10:26:01;;;;;;;6.43;5.23;;;;;;;;;;4965804;28;20206;-88
2022/04/05 10:29:15;;;;;;;6.83;5.43;;;;;;;;;;4966098;28;20207;-87
2022/04/05 10:32:46;;;;;;;8.27;5.43;;;;;;;;;;4965535;28;20195;-86
2022/04/05 10:36:00;;;;;;;7.20;5.53;;;;;;;;;;4965621;28;20183;-87
2022/04/05 10:39:22;;;;;;;6.30;5.13;;;;;;;;;;4965706;28;20179;-87
2022/04/05 10:42:37;;;;;;;7.40;5.83;;;;;;;;;;4976744;28;20187;-88
2022/04/05 10:45:43;;;;;;;6.07;4.97;;;;;;;;;;4965322;28;20218;-88
2022/04/05 10:48:56;;;;;;;7.50;5.27;;;;;;;;;;4965350;28;20175;-87
2022/04/05 10:52:32;;;;;;;8.10;6.37;;;;;;;;;;4964263;28;20183;-88
2022/04/05 10:56:06;;;;;;;8.07;5.57;;;;;;;;;;4976526;28;20574;-87
2022/04/05 10:59:18;;;;;;;8.13;5.70;;;;;;;;;;4977231;28;20183;-88
2022/04/05 11:02:33;;;;;;;6.83;5.13;;;;;;;;;;4965681;28;20186;-87
2022/04/05 11:05:38;;;;;;;9.37;5.70;;;;;;;;;;4965110;28;20215;-87
2022/04/05 11:08:42;;;;;;;10.03;5.67;;;;;;;;;;4976254;28;20183;-88
2022/04/05 11:11:47;;;;;;;7.27;4.80;;;;;;;;;;4965112;28;20179;-87
2022/04/05 11:14:53;;;;;;;8.23;5.40;;;;;;;;;;4975809;28;20215;-88
2022/04/05 11:17:59;;;;;;;8.70;5.37;;;;;;;;;;4976169;28;20187;-87
2022/04/05 11:21:08;;;;;;;7.23;6.20;;;;;;;;;;4976356;28;20519;-87
2022/04/05 11:24:12;;;;;;;7.03;5.73;;;;;;;;;;4964813;28;20226;-87
2022/04/05 11:27:30;;;;;;;8.97;6.00;;;;;;;;;;4964737;28;20179;-87
2022/04/05 11:30:39;;;;;;;11.10;7.57;;;;;;;;;;4975888;28;20207;-87
2022/04/05 11:33:45;;;;;;;12.40;7.83;;;;;;;;;;4975819;28;20245;-86
2022/04/05 11:36:49;;;;;;;10.73;7.23;;;;;;;;;;4975682;28;20199;-87
2022/04/05 11:39:53;;;;;;;9.43;7.00;;;;;;;;;;4964727;28;20174;-86
2022/04/05 11:43:03;;;;;;;10.87;9.77;;;;;;;;;;4964815;28;20527;-86
2022/04/05 11:46:16;;;;;;;8.33;7.10;;;;;;;;;;4964498;28;20211;-86
2022/04/05 11:49:20;;;;;;;9.93;5.47;;;;;;;;;;4964506;28;20183;-88
2022/04/05 11:52:29;;;;;;;8.83;6.67;;;;;;;;;;4975834;28;20178;-87
2022/04/05 11:58:58;;;;;;;15.00;8.57;;;;;;;;;;4975990;28;20183;-88
2022/04/05 12:02:02;;;;;;;8.13;6.30;;;;;;;;;;4964833;28;20183;-87
2022/04/05 12:05:06;;;;;;;11.97;6.30;;;;;;;;;;4965108;28;20226;-88
2022/04/05 12:08:12;;;;;;;10.63;6.33;;;;;;;;;;4965255;28;20630;-87
2022/04/05 12:11:18;;;;;;;9.43;5.70;;;;;;;;;;4975726;28;20183;-87
2022/04/05 12:14:24;;;;;;;9.83;5.97;;;;;;;;;;4965173;28;20219;-86
2022/04/05 12:17:28;;;;;;;8.03;5.73;;;;;;;;;;4965135;28;20183;-87
2022/04/05 12:20:32;;;;;;;12.50;5.70;;;;;;;;;;4987206;28;20187;-87
2022/04/05 12:23:39;;;;;;;11.17;6.77;;;;;;;;;;4975270;28;20210;-87
2022/04/05 12:26:43;;;;;;;13.67;6.73;;;;;;;;;;4975239;28;20207;-87
2022/04/05 12:29:47;;;;;;;18.40;6.83;;;;;;;;;;4964063;28;20179;-87
2022/04/05 12:32:51;;;;;;;15.00;6.83;;;;;;;;;;4974764;28;20183;-87
2022/04/05 12:35:56;;;;;;;17.07;6.60;;;;;;;;;;4963885;28;20183;-87
2022/04/05 12:39:15;;;;;;;10.40;5.20;;;;;;;;;;4974814;28;20634;-86
2022/04/05 12:42:19;;;;;;;25.57;8.63;;;;;;;;;;4963388;28;20183;-87
2022/04/05 12:45:26;;;;;;;12.00;6.27;;;;;;;;;;4963874;28;20256;-86
2022/04/05 12:48:30;;;;;;;16.70;6.53;;;;;;;;;;4963687;28;20194;-86
2022/04/05 12:51:34;;;;;;;20.30;8.23;;;;;;;;;;4974674;28;20661;-88
2022/04/05 12:54:54;;;;;;;18.57;7.90;;;;;;;;;;5001123;23;20233;-88
2022/04/05 12:57:58;;;;;;;17.60;7.50;;;;;;;;;;4991039;28;20186;-88
2022/04/05 13:01:15;;;;;;;15.13;6.60;;;;;;;;;;4991089;28;20632;-88
2022/04/05 13:04:21;;;;;;;18.97;10.20;;;;;;;;;;5013160;28;20214;-87
2022/04/05 13:07:25;;;;;;;11.83;8.13;;;;;;;;;;4991496;28;20686;-88
2022/04/05 13:10:40;;;;;;;7.30;4.67;;;;;;;;;;4991076;28;20232;-88
2022/04/05 13:13:44;;;;;;;6.40;4.47;;;;;;;;;;5001775;28;20186;-87
2022/04/05 13:16:59;;;;;;;5.13;4.07;;;;;;;;;;4990620;28;20173;-88
2022/04/05 13:20:07;;;;;;;8.47;4.30;;;;;;;;;;5002030;28;20186;-87
2022/04/05 13:23:12;;;;;;;5.20;3.80;;;;;;;;;;5002117;28;20189;-91
2022/04/05 13:26:21;;;;;;;5.30;4.27;;;;;;;;;;4990654;28;20205;-89
2022/04/05 13:29:28;;;;;;;4.83;3.83;;;;;;;;;;4990441;28;20197;-89
2022/04/05 13:32:34;;;;;;;6.80;4.10;;;;;;;;;;5002315;28;20182;-85
2022/04/05 13:35:38;;;;;;;7.03;4.30;;;;;;;;;;4991580;28;20231;-85
2022/04/05 13:38:42;;;;;;;6.33;4.20;;;;;;;;;;5013760;28;20197;-83
2022/04/05 13:41:47;;;;;;;7.27;4.13;;;;;;;;;;4990539;28;20201;-85
2022/04/05 13:45:09;;;;;;;6.60;4.50;;;;;;;;;;5002507;28;20221;-91
2022/04/05 13:48:13;;;;;;;6.27;4.80;;;;;;;;;;4990304;28;20166;-87
2022/04/05 13:51:17;;;;;;;6.67;5.33;;;;;;;;;;5001883;28;20186;-90
2022/04/05 13:54:22;;;;;;;6.37;3.97;;;;;;;;;;4996480;28;20225;-88
2022/04/05 13:57:26;;;;;;;10.70;9.47;;;;;;;;;;4990564;28;20177;-87
2022/04/05 14:00:30;;;;;;;7.40;6.17;;;;;;;;;;5001600;28;20205;-86
2022/04/05 14:03:34;;;;;;;6.63;5.43;;;;;;;;;;5001390;28;20188;-86
2022/04/05 14:06:39;;;;;;;7.47;5.13;;;;;;;;;;4990371;28;20209;-86
2022/04/05 14:09:44;;;;;;;6.93;4.87;;;;;;;;;;5001494;28;20198;-87
2022/04/05 14:12:48;;;;;;;6.83;5.07;;;;;;;;;;5001697;28;20641;-85
2022/04/05 14:15:53;;;;;;;6.73;4.17;;;;;;;;;;5001293;28;20696;-86
2022/04/05 14:18:57;;;;;;;5.77;4.00;;;;;;;;;;4990196;28;20197;-87
2022/04/05 14:22:01;;;;;;;4.53;3.97;;;;;;;;;;5001161;28;20197;-87
2022/04/05 14:25:06;;;;;;;6.67;4.27;;;;;;;;;;5001189;28;20225;-89
2022/04/05 14:28:11;;;;;;;8.33;5.20;;;;;;;;;;5016179;28;20165;-87
2022/04/05 14:31:15;;;;;;;11.07;8.27;;;;;;;;;;4993691;28;20525;-87
2022/04/05 14:34:19;;;;;;;6.20;4.30;;;;;;;;;;5004571;28;20217;-88
2022/04/05 14:37:23;;;;;;;6.17;5.13;;;;;;;;;;4994072;28;20178;-88
2022/04/05 14:40:27;;;;;;;8.50;6.77;;;;;;;;;;5016060;28;20185;-89
2022/04/05 14:43:31;;;;;;;10.10;6.37;;;;;;;;;;5006429;28;20177;-89
2022/04/05 14:46:37;;;;;;;16.00;9.80;;;;;;;;;;5016325;28;20205;-88
2022/04/05 14:49:41;;;;;;;14.10;8.70;;;;;;;;;;4993863;28;20182;-89
2022/04/05 14:52:45;;;;;;;7.80;5.63;;;;;;;;;;5004661;28;20635;-89
2022/04/05 14:55:49;;;;;;;7.00;4.87;;;;;;;;;;5004217;28;20221;-90
2022/04/05 14:58:53;;;;;;;7.00;4.90;;;;;;;;;;5004767;28;20177;-90
2022/04/05 15:01:57;;;;;;;5.37;4.37;;;;;;;;;;5004483;28;20178;-89
2022/04/05 15:05:02;;;;;;;6.67;4.80;;;;;;;;;;4993026;28;20727;-87
2022/04/05 15:08:07;;;;;;;5.97;4.93;;;;;;;;;;5015541;28;20194;-86
2022/04/05 15:11:11;;;;;;;9.03;6.50;;;;;;;;;;5004480;28;20197;-90
2022/04/05 15:14:19;;;;;;;14.40;9.70;;;;;;;;;;4992437;28;20209;-89
2022/04/05 15:17:23;;;;;;;8.10;5.47;;;;;;;;;;4992893;28;20182;-88
2022/04/05 15:20:28;;;;;;;9.10;6.20;;;;;;;;;;4992630;28;20201;-88
2022/04/05 15:23:32;;;;;;;9.17;5.60;;;;;;;;;;4991658;28;20177;-88
2022/04/05 15:26:36;;;;;;;7.33;5.20;;;;;;;;;;4992736;28;20205;-88
2022/04/05 15:29:41;;;;;;;10.50;7.70;;;;;;;;;;5003721;28;20190;-88
2022/04/05 15:32:45;;;;;;;12.37;6.83;;;;;;;;;;4992915;28;20181;-87
2022/04/05 15:35:50;;;;;;;6.97;5.00;;;;;;;;;;4992341;28;20225;-88
2022/04/05 15:38:55;;;;;;;6.50;4.80;;;;;;;;;;4991694;28;20185;-88
2022/04/05 15:42:00;;;;;;;7.63;5.67;;;;;;;;;;5003516;28;20185;-89
2022/04/05 15:45:04;;;;;;;6.37;5.07;;;;;;;;;;5003174;28;20209;-87
2022/04/05 15:48:10;;;;;;;4.77;4.27;;;;;;;;;;4992475;28;20205;-88
2022/04/05 15:51:14;;;;;;;7.43;5.60;;;;;;;;;;5003263;28;20185;-89
2022/04/05 15:54:18;;;;;;;5.73;4.17;;;;;;;;;;4991842;28;20225;-86
2022/04/05 15:57:24;;;;;;;4.57;4.00;;;;;;;;;;4991933;28;20636;-91
2022/04/05 16:00:28;;;;;;;8.77;4.70;;;;;;;;;;4992803;28;20186;-88
2022/04/05 16:03:32;;;;;;;7.40;4.87;;;;;;;;;;4991774;28;20632;-88
2022/04/05 16:06:37;;;;;;;7.77;4.77;;;;;;;;;;4991883;28;20205;-87
2022/04/05 16:09:41;;;;;;;6.23;5.63;;;;;;;;;;5003254;28;20530;-87
2022/04/05 16:12:46;;;;;;;5.53;3.90;;;;;;;;;;4993295;28;20628;-89
2022/04/05 16:15:51;;;;;;;5.77;4.20;;;;;;;;;;4991794;28;20212;-88
2022/04/05 16:18:55;;;;;;;6.13;5.00;;;;;;;;;;4991735;28;20173;-89
2022/04/05 16:22:02;;;;;;;7.00;4.20;;;;;;;;;;4991884;28;20177;-89
2022/04/05 16:25:07;;;;;;;7.83;6.00;;;;;;;;;;5002619;28;20208;-89
2022/04/05 16:28:11;;;;;;;6.30;4.37;;;;;;;;;;4991518;28;20209;-87
2022/04/05 16:31:15;;;;;;;7.70;6.30;;;;;;;;;;5013851;28;20185;-89
2022/04/05 16:34:20;;;;;;;10.13;8.13;;;;;;;;;;4991336;28;20588;-90
2022/04/05 16:37:25;;;;;;;10.40;5.93;;;;;;;;;;4991477;28;20518;-88
2022/04/05 16:40:29;;;;;;;9.00;5.93;;;;;;;;;;5002299;28;20201;-89
2022/04/05 16:43:33;;;;;;;7.03;5.47;;;;;;;;;;5013514;28;20201;-89
2022/04/05 16:46:38;;;;;;;7.23;5.60;;;;;;;;;;5002700;28;20213;-89
2022/04/05 16:49:42;;;;;;;6.20;5.13;;;;;;;;;;4991217;28;20186;-89
2022/04/05 16:52:46;;;;;;;9.50;5.90;;;;;;;;;;5002478;28;20177;-89
2022/04/05 16:55:51;;;;;;;8.80;6.17;;;;;;;;;;5001927;28;20226;-88
2022/04/05 16:58:55;;;;;;;8.53;5.50;;;;;;;;;;5002179;28;20174;-89
2022/04/05 17:02:00;;;;;;;8.50;6.50;;;;;;;;;;4991303;28;20514;-89
2022/04/05 17:05:05;;;;;;;6.73;5.33;;;;;;;;;;5001869;28;20561;-89
2022/04/05 17:08:10;;;;;;;7.10;5.63;;;;;;;;;;5001976;28;20651;-89
2022/04/05 17:11:14;;;;;;;9.03;6.50;;;;;;;;;;5002003;28;20178;-89
2022/04/05 17:14:18;;;;;;;11.37;8.30;;;;;;;;;;4990736;28;20217;-89
2022/04/05 17:17:22;;;;;;;13.50;8.20;;;;;;;;;;5013263;28;20177;-89
2022/04/05 17:20:27;;;;;;;22.93;11.77;;;;;;;;;;4990661;28;20201;-89
2022/04/05 17:23:31;;;;;;;15.13;8.67;;;;;;;;;;5001500;28;20209;-89
2022/04/05 17:26:35;;;;;;;13.37;7.00;;;;;;;;;;4990498;28;20201;-89
2022/04/05 17:29:40;;;;;;;16.13;9.97;;;;;;;;;;4990726;28;20545;-90
2022/04/05 17:32:44;;;;;;;16.83;9.63;;;;;;;;;;5013131;28;20189;-89
2022/04/05 17:35:49;;;;;;;26.07;12.83;;;;;;;;;;4990288;28;20212;-89
2022/04/05 17:38:53;;;;;;;17.70;8.70;;;;;;;;;;5002092;28;20625;-89
2022/04/05 17:41:57;;;;;;;21.77;11.30;;;;;;;;;;4990476;28;20178;-90
2022/04/05 17:45:02;;;;;;;27.57;13.33;;;;;;;;;;4990932;28;20225;-87
2022/04/05 17:48:07;;;;;;;38.23;18.53;;;;;;;;;;5001696;28;20210;-88
2022/04/05 17:51:11;;;;;;;16.30;7.90;;;;;;;;;;4990615;28;20190;-88
2022/04/05 17:54:16;;;;;;;51.13;23.03;;;;;;;;;;5001827;28;20220;-87
2022/04/05 17:57:20;;;;;;;20.07;10.63;;;;;;;;;;4990826;28;20173;-90
2022/04/05 18:00:24;;;;;;;29.90;14.17;;;;;;;;;;5002239;28;20192;-88
2022/04/05 18:03:30;;;;;;;33.40;14.77;;;;;;;;;;5005405;28;20177;-89
2022/04/05 18:06:34;;;;;;;53.40;23.37;;;;;;;;;;4994426;28;20177;-89
2022/04/05 18:09:38;;;;;;;16.20;9.23;;;;;;;;;;5005345;28;20178;-88
2022/04/05 18:12:43;;;;;;;34.60;19.10;;;;;;;;;;5016476;28;20541;-90
2022/04/05 18:15:48;;;;;;;34.70;20.30;;;;;;;;;;5016044;28;20221;-90
2022/04/05 18:18:52;;;;;;;36.27;20.53;;;;;;;;;;5005180;28;20636;-90
2022/04/05 18:21:57;;;;;;;32.33;18.23;;;;;;;;;;5005175;28;20664;-89
2022/04/05 18:25:04;;;;;;;22.63;13.00;;;;;;;;;;4993584;28;20213;-90
2022/04/05 18:28:08;;;;;;;9.30;6.10;;;;;;;;;;4993580;28;20205;-89
2022/04/05 18:31:14;;;;;;;8.57;5.80;;;;;;;;;;4993867;28;20664;-89
2022/04/05 18:34:18;;;;;;;7.97;5.13;;;;;;;;;;5004614;28;20719;-90